Del Mar, California
Current Conditions -  °F | °C
As of 1:55 PM on Saturday 20 Dec 2014 (Local Time) from KNKX Reporting Station
Broken Clouds Broken Clouds  
Wind Chill: 18°   Ceiling: 18000
Heat Index: 18°   Visibility: 10mi
Dew Point: 11°   Wind: 12mph
Humidity: 61%   Direction: 300°WNW
Pressure: 30.13"   Gusts: NA
Location:  32.96°N, 117.27°W
Report Text: KNKX 202155Z 30010KT 10SM SCT024 BKN180 18/11 A3013 RMK AO2 SLP200 T01830106
Loading
Personal Weather Stations






























Interactive Weather Map New forecast layout! Learn more

10-Day Weather Forecast

Advertisements
Track Severe Weather on mobile